Time;durP1;ratioP1;P1;durP2;ratioP2;P2;SDS_P1;SDS_P2;PMS_P1;PMS_P2;Temp;Humidity;BMP_temperature;BMP_pressure;BME280_temperature;BME280_humidity;BME280_pressure;Samples;Min_cycle;Max_cycle;Signal;HPM_P1;HPM_P2
2022/04/01 00:01:22;;;;;;;5.77;5.23;;;;;;;;;;5077145;28;20539;-73
2022/04/01 00:03:57;;;;;;;7.23;6.83;;;;;;;;;;5056954;28;20905;-73
2022/04/01 00:06:26;;;;;;;6.00;5.70;;;;;;;;;;5057227;28;20453;-72
2022/04/01 00:08:57;;;;;;;4.07;3.77;;;;;;;;;;5056796;28;20462;-69
2022/04/01 00:11:30;;;;;;;6.53;6.10;;;;;;;;;;5056796;28;20453;-71
2022/04/01 00:14:03;;;;;;;6.20;5.80;;;;;;;;;;5056658;28;20530;-70
2022/04/01 00:16:34;;;;;;;9.53;8.73;;;;;;;;;;5056945;28;20449;-70
2022/04/01 00:19:03;;;;;;;8.53;8.07;;;;;;;;;;5055935;28;20472;-71
2022/04/01 00:21:30;;;;;;;11.33;10.70;;;;;;;;;;5056998;28;20468;-72
2022/04/01 00:24:01;;;;;;;13.27;12.33;;;;;;;;;;5068055;28;20484;-70
2022/04/01 00:26:35;;;;;;;11.47;10.73;;;;;;;;;;5061952;28;20449;-70
2022/04/01 00:29:14;;;;;;;9.27;8.43;;;;;;;;;;5056941;28;20726;-70
2022/04/01 00:31:43;;;;;;;7.30;6.10;;;;;;;;;;5055998;28;20734;-71
2022/04/01 00:34:17;;;;;;;8.67;7.70;;;;;;;;;;5056243;28;20719;-71
2022/04/01 00:36:45;;;;;;;8.77;8.23;;;;;;;;;;5056258;28;20714;-70
2022/04/01 00:39:13;;;;;;;5.03;4.37;;;;;;;;;;5056339;28;20481;-71
2022/04/01 00:41:44;;;;;;;5.00;4.60;;;;;;;;;;5056717;28;20473;-70
2022/04/01 00:44:15;;;;;;;12.97;12.17;;;;;;;;;;5056170;28;20490;-71
2022/04/01 00:46:43;;;;;;;4.60;4.20;;;;;;;;;;5056499;28;20449;-70
2022/04/01 00:49:11;;;;;;;4.33;4.03;;;;;;;;;;5061801;28;20471;-71
2022/04/01 00:51:40;;;;;;;8.20;7.60;;;;;;;;;;5075935;28;20859;-71
2022/04/01 00:54:07;;;;;;;7.00;6.40;;;;;;;;;;5076585;28;20456;-71
2022/04/01 00:56:39;;;;;;;7.37;6.87;;;;;;;;;;5076430;28;20448;-71
2022/04/01 00:59:08;;;;;;;5.43;4.60;;;;;;;;;;5076474;28;20510;-71
2022/04/01 01:01:39;;;;;;;3.47;3.10;;;;;;;;;;5076552;28;20706;-71
2022/04/01 01:04:08;;;;;;;6.90;6.50;;;;;;;;;;5076645;28;20487;-70
2022/04/01 01:06:40;;;;;;;5.23;4.60;;;;;;;;;;5076010;28;20492;-71
2022/04/01 01:09:07;;;;;;;5.53;4.97;;;;;;;;;;5076211;28;20459;-71
2022/04/01 01:11:36;;;;;;;6.57;6.07;;;;;;;;;;5075522;28;20483;-71
2022/04/01 01:14:04;;;;;;;5.13;4.73;;;;;;;;;;5080868;28;20451;-71
2022/04/01 01:16:32;;;;;;;9.00;7.53;;;;;;;;;;5093807;28;20432;-71
2022/04/01 01:19:03;;;;;;;6.37;5.80;;;;;;;;;;5075364;28;20445;-70
2022/04/01 01:21:31;;;;;;;15.87;15.00;;;;;;;;;;5075835;28;20490;-70
2022/04/01 01:24:03;;;;;;;5.93;5.40;;;;;;;;;;5075740;28;20514;-71
2022/04/01 01:26:33;;;;;;;6.40;5.97;;;;;;;;;;5075460;28;20464;-71
2022/04/01 01:29:01;;;;;;;17.33;16.10;;;;;;;;;;5075993;28;20590;-71
2022/04/01 01:31:29;;;;;;;9.77;9.13;;;;;;;;;;5077242;28;20537;-71
2022/04/01 01:33:57;;;;;;;9.13;8.53;;;;;;;;;;5079953;28;20456;-70
2022/04/01 01:36:26;;;;;;;4.87;4.40;;;;;;;;;;5079423;28;20869;-70
2022/04/01 01:38:54;;;;;;;9.77;8.93;;;;;;;;;;5079517;28;20486;-71
2022/04/01 01:41:22;;;;;;;6.80;6.30;;;;;;;;;;5079359;28;20460;-71
2022/04/01 01:43:51;;;;;;;9.20;8.47;;;;;;;;;;5079454;28;20488;-71
2022/04/01 01:46:19;;;;;;;4.43;4.07;;;;;;;;;;5078742;28;20463;-71
2022/04/01 01:48:47;;;;;;;9.40;5.67;;;;;;;;;;5079208;28;20452;-70
2022/04/01 01:56:46;;;;;;;8.23;3.73;;;;;;;;;;5058922;28;20580;-70
2022/04/01 01:59:15;;;;;;;6.63;6.13;;;;;;;;;;5058488;28;20544;-70
2022/04/01 02:01:45;;;;;;;6.20;5.47;;;;;;;;;;5058847;28;20452;-70
2022/04/01 02:04:13;;;;;;;5.00;4.47;;;;;;;;;;5058946;28;20976;-70
2022/04/01 02:06:41;;;;;;;4.53;4.13;;;;;;;;;;5059730;28;20826;-71
2022/04/01 02:09:09;;;;;;;6.50;6.10;;;;;;;;;;5059043;28;20552;-71
2022/04/01 02:11:37;;;;;;;6.67;5.33;;;;;;;;;;5059044;28;20456;-70
2022/04/01 02:14:06;;;;;;;31.83;29.03;;;;;;;;;;5065360;28;20449;-71
2022/04/01 02:16:35;;;;;;;13.93;13.23;;;;;;;;;;5078681;28;20456;-70
2022/04/01 02:19:09;;;;;;;24.40;22.63;;;;;;;;;;5078847;28;20891;-71
2022/04/01 02:21:37;;;;;;;34.03;30.43;;;;;;;;;;5078652;28;20445;-71
2022/04/01 02:24:10;;;;;;;42.70;35.93;;;;;;;;;;5078415;28;20561;-71
2022/04/01 02:26:38;;;;;;;32.33;29.13;;;;;;;;;;5078683;28;20519;-70
2022/04/01 02:29:09;;;;;;;22.10;20.67;;;;;;;;;;5072031;28;20458;-71
2022/04/01 02:31:39;;;;;;;3.53;3.33;;;;;;;;;;5058340;28;20465;-70
2022/04/01 02:34:06;;;;;;;18.60;17.47;;;;;;;;;;5058579;28;20937;-71
2022/04/01 02:36:34;;;;;;;18.13;17.13;;;;;;;;;;5069357;28;20458;-70
2022/04/01 02:39:03;;;;;;;22.57;20.93;;;;;;;;;;5078383;28;20460;-71
2022/04/01 02:41:31;;;;;;;49.70;37.63;;;;;;;;;;5078317;28;20452;-70
2022/04/01 02:44:09;;;;;;;48.80;37.93;;;;;;;;;;5078312;28;20820;-71
2022/04/01 02:46:43;;;;;;;55.50;40.87;;;;;;;;;;5077494;28;20456;-71
2022/04/01 02:49:12;;;;;;;48.87;36.40;;;;;;;;;;5078356;28;20482;-71
2022/04/01 02:51:40;;;;;;;41.70;35.77;;;;;;;;;;5077971;28;20900;-71
2022/04/01 02:54:12;;;;;;;17.13;15.93;;;;;;;;;;5077517;28;20487;-70
2022/04/01 02:56:41;;;;;;;9.60;8.90;;;;;;;;;;5078075;28;20896;-70
2022/04/01 02:59:09;;;;;;;3.93;3.63;;;;;;;;;;5077809;28;20456;-70
2022/04/01 03:01:40;;;;;;;5.13;4.63;;;;;;;;;;5086308;28;20559;-71
2022/04/01 03:04:12;;;;;;;8.00;5.87;;;;;;;;;;5097925;28;20857;-70
2022/04/01 03:06:40;;;;;;;8.83;8.23;;;;;;;;;;5098349;28;20466;-71
2022/04/01 03:09:08;;;;;;;16.17;14.97;;;;;;;;;;5083402;28;20445;-71
2022/04/01 03:11:37;;;;;;;3.30;2.27;;;;;;;;;;5077600;28;20783;-70
2022/04/01 03:14:05;;;;;;;5.83;3.90;;;;;;;;;;5077180;28;20550;-71
2022/04/01 03:16:33;;;;;;;3.70;3.40;;;;;;;;;;5077512;28;20456;-71
2022/04/01 03:19:01;;;;;;;16.17;15.27;;;;;;;;;;5076718;28;20487;-71
2022/04/01 03:21:31;;;;;;;5.47;3.47;;;;;;;;;;5077746;28;20555;-71
2022/04/01 03:24:00;;;;;;;4.13;3.67;;;;;;;;;;5064967;28;20485;-71
2022/04/01 03:26:29;;;;;;;7.53;3.73;;;;;;;;;;5058676;28;20806;-71
2022/04/01 03:28:59;;;;;;;5.20;4.40;;;;;;;;;;5077300;28;20459;-71
2022/04/01 03:31:30;;;;;;;11.33;10.23;;;;;;;;;;5075461;28;20468;-71
2022/04/01 03:33:57;;;;;;;4.00;2.50;;;;;;;;;;5096939;28;20440;-71
2022/04/01 03:36:25;;;;;;;3.93;3.20;;;;;;;;;;5073358;28;20531;-71
2022/04/01 03:38:55;;;;;;;8.60;8.00;;;;;;;;;;5057349;28;20986;-72
2022/04/01 03:41:23;;;;;;;28.80;26.00;;;;;;;;;;5056946;28;20461;-71
2022/04/01 03:43:52;;;;;;;6.83;6.33;;;;;;;;;;5056050;28;20485;-70
2022/04/01 03:46:21;;;;;;;3.73;3.03;;;;;;;;;;5065169;28;20534;-71
2022/04/01 03:48:55;;;;;;;8.17;7.43;;;;;;;;;;5076283;28;20860;-70
2022/04/01 03:51:25;;;;;;;6.03;4.50;;;;;;;;;;5076122;28;20736;-71
2022/04/01 03:53:55;;;;;;;7.10;2.67;;;;;;;;;;5075521;28;20513;-71
2022/04/01 03:56:25;;;;;;;10.17;9.27;;;;;;;;;;5076511;28;20460;-71
2022/04/01 03:58:53;;;;;;;5.17;4.10;;;;;;;;;;5076658;28;20467;-71
2022/04/01 04:01:21;;;;;;;5.93;4.40;;;;;;;;;;5068354;28;20502;-71
2022/04/01 04:03:52;;;;;;;6.20;4.47;;;;;;;;;;5056213;28;20457;-71
2022/04/01 04:06:21;;;;;;;5.77;5.17;;;;;;;;;;5058301;28;21115;-71
2022/04/01 04:08:50;;;;;;;10.57;9.77;;;;;;;;;;5070447;28;20465;-70
2022/04/01 04:11:20;;;;;;;11.10;10.43;;;;;;;;;;5076311;28;20464;-71
2022/04/01 04:13:51;;;;;;;5.43;4.50;;;;;;;;;;5077151;28;20963;-71
2022/04/01 04:16:19;;;;;;;7.30;6.47;;;;;;;;;;5077659;28;20878;-71
2022/04/01 04:18:50;;;;;;;22.53;20.47;;;;;;;;;;5076322;28;20437;-71
2022/04/01 04:21:26;;;;;;;11.47;10.87;;;;;;;;;;5075833;28;20482;-71
2022/04/01 04:23:57;;;;;;;16.90;15.80;;;;;;;;;;5075433;28;20456;-71
2022/04/01 04:26:32;;;;;;;16.00;15.10;;;;;;;;;;5075681;28;20526;-71
2022/04/01 04:29:03;;;;;;;16.37;15.17;;;;;;;;;;5082203;28;20494;-71
2022/04/01 04:31:32;;;;;;;9.30;8.70;;;;;;;;;;5077055;28;20468;-72
2022/04/01 04:34:14;;;;;;;7.87;7.27;;;;;;;;;;5075014;28;20517;-71
2022/04/01 04:36:43;;;;;;;7.87;7.20;;;;;;;;;;5073894;28;20472;-71
2022/04/01 04:39:16;;;;;;;11.10;10.30;;;;;;;;;;5075795;28;20517;-71
2022/04/01 04:41:47;;;;;;;10.97;10.33;;;;;;;;;;5075461;28;20448;-71
2022/04/01 04:44:15;;;;;;;28.80;26.43;;;;;;;;;;5075693;28;20452;-74
2022/04/01 04:46:44;;;;;;;22.27;20.70;;;;;;;;;;5074964;28;20531;-71
2022/04/01 04:49:12;;;;;;;25.07;23.10;;;;;;;;;;5075341;28;20448;-71
2022/04/01 04:51:40;;;;;;;9.10;8.50;;;;;;;;;;5086042;28;20988;-71
2022/04/01 04:54:09;;;;;;;8.43;7.27;;;;;;;;;;5091359;28;20746;-71
2022/04/01 04:56:36;;;;;;;3.93;3.13;;;;;;;;;;5091207;28;20452;-71
2022/04/01 04:59:07;;;;;;;22.17;20.77;;;;;;;;;;5094603;28;21057;-71
2022/04/01 05:01:39;;;;;;;24.70;22.90;;;;;;;;;;5080524;28;20452;-71
2022/04/01 05:04:17;;;;;;;25.90;23.97;;;;;;;;;;5074751;28;20457;-70
2022/04/01 05:06:55;;;;;;;76.50;41.83;;;;;;;;;;5078892;28;20456;-71
2022/04/01 05:09:27;;;;;;;97.97;48.70;;;;;;;;;;5070168;28;20745;-71
2022/04/01 05:12:03;;;;;;;91.90;46.97;;;;;;;;;;5058350;28;20987;-70
2022/04/01 05:14:41;;;;;;;97.13;49.03;;;;;;;;;;5057344;28;20457;-71
2022/04/01 05:17:15;;;;;;;84.20;46.20;;;;;;;;;;5075967;28;20452;-71
2022/04/01 05:19:52;;;;;;;88.20;48.60;;;;;;;;;;5077366;28;20463;-70
2022/04/01 05:22:27;;;;;;;86.67;47.73;;;;;;;;;;5062661;28;20492;-71
2022/04/01 05:24:55;;;;;;;76.07;45.17;;;;;;;;;;5056800;28;20485;-70
2022/04/01 05:27:25;;;;;;;75.50;44.77;;;;;;;;;;5058194;28;20858;-70
2022/04/01 05:30:01;;;;;;;80.10;44.70;;;;;;;;;;5092232;28;20452;-71
2022/04/01 05:32:33;;;;;;;36.87;33.47;;;;;;;;;;5096745;28;20593;-71
2022/04/01 05:35:04;;;;;;;13.23;12.40;;;;;;;;;;5096884;28;20447;-71
2022/04/01 05:37:35;;;;;;;11.67;10.90;;;;;;;;;;5082339;28;20716;-71
2022/04/01 05:40:05;;;;;;;31.17;28.33;;;;;;;;;;5056139;28;20465;-71
2022/04/01 05:42:36;;;;;;;35.60;32.30;;;;;;;;;;5055783;28;20506;-71
2022/04/01 05:45:06;;;;;;;34.43;31.10;;;;;;;;;;5055151;28;20485;-71
2022/04/01 05:47:38;;;;;;;30.43;27.70;;;;;;;;;;5055527;28;20441;-71
2022/04/01 05:50:06;;;;;;;5.67;4.90;;;;;;;;;;5055374;28;20457;-71
2022/04/01 05:52:36;;;;;;;5.10;4.60;;;;;;;;;;5055582;28;20481;-71
2022/04/01 05:55:05;;;;;;;6.30;5.50;;;;;;;;;;5055032;28;20468;-71
2022/04/01 05:57:32;;;;;;;3.87;3.50;;;;;;;;;;5056682;28;20748;-71
2022/04/01 06:00:00;;;;;;;8.87;5.93;;;;;;;;;;5054152;28;20480;-71
2022/04/01 06:02:37;;;;;;;7.60;6.37;;;;;;;;;;5070472;28;20721;-71
2022/04/01 06:05:10;;;;;;;8.43;7.50;;;;;;;;;;5074213;28;20487;-72
2022/04/01 06:07:40;;;;;;;12.30;11.23;;;;;;;;;;5074115;28;20542;-71
2022/04/01 06:10:09;;;;;;;24.27;22.60;;;;;;;;;;5061739;28;20472;-71
2022/04/01 06:12:42;;;;;;;17.60;16.30;;;;;;;;;;5068513;28;20452;-71
2022/04/01 06:15:14;;;;;;;10.67;9.93;;;;;;;;;;5096260;28;20868;-71
2022/04/01 06:17:47;;;;;;;14.77;13.70;;;;;;;;;;5084480;28;20447;-72
2022/04/01 06:20:15;;;;;;;24.20;22.63;;;;;;;;;;5076814;28;20461;-71
2022/04/01 06:22:50;;;;;;;19.60;18.30;;;;;;;;;;5076761;28;20456;-71
2022/04/01 06:25:20;;;;;;;17.30;16.10;;;;;;;;;;5073932;28;20908;-71
2022/04/01 06:27:49;;;;;;;25.93;23.83;;;;;;;;;;5079092;28;20467;-71
2022/04/01 06:30:18;;;;;;;11.63;11.03;;;;;;;;;;5079614;28;20495;-71
2022/04/01 06:32:54;;;;;;;6.30;5.80;;;;;;;;;;5076426;28;20543;-72
2022/04/01 06:35:29;;;;;;;12.20;11.20;;;;;;;;;;5076605;28;20486;-71
2022/04/01 06:37:59;;;;;;;28.90;26.60;;;;;;;;;;5077279;28;20864;-72
2022/04/01 06:40:31;;;;;;;26.53;21.63;;;;;;;;;;5075677;28;20436;-71
2022/04/01 06:43:02;;;;;;;12.10;11.10;;;;;;;;;;5077815;28;20444;-71
2022/04/01 06:45:30;;;;;;;8.83;8.03;;;;;;;;;;5090786;28;20494;-70
2022/04/01 06:47:59;;;;;;;14.50;13.60;;;;;;;;;;5096551;28;20470;-70
2022/04/01 06:50:28;;;;;;;10.63;9.87;;;;;;;;;;5097361;28;20462;-70
2022/04/01 06:52:56;;;;;;;8.17;7.67;;;;;;;;;;5082957;28;20789;-70
2022/04/01 06:55:28;;;;;;;44.30;38.83;;;;;;;;;;5055553;28;20449;-70
2022/04/01 06:57:57;;;;;;;47.50;42.00;;;;;;;;;;5054750;28;20811;-70
2022/04/01 07:00:26;;;;;;;44.83;38.60;;;;;;;;;;5054645;28;20461;-70
2022/04/01 07:03:01;;;;;;;42.20;37.80;;;;;;;;;;5058340;28;20452;-70
2022/04/01 07:05:35;;;;;;;21.47;19.90;;;;;;;;;;5074599;28;20480;-70
2022/04/01 07:08:06;;;;;;;12.37;11.17;;;;;;;;;;5075787;28;20845;-69
2022/04/01 07:10:34;;;;;;;8.73;8.13;;;;;;;;;;5075876;28;20452;-70
2022/04/01 07:13:02;;;;;;;10.60;9.70;;;;;;;;;;5075954;28;20456;-70
2022/04/01 07:15:30;;;;;;;9.40;8.57;;;;;;;;;;5076268;28;20452;-70
2022/04/01 07:17:59;;;;;;;8.43;6.60;;;;;;;;;;5075417;28;20752;-70
2022/04/01 07:20:28;;;;;;;7.73;7.10;;;;;;;;;;5074482;28;20461;-70
2022/04/01 07:22:57;;;;;;;7.20;5.80;;;;;;;;;;5074872;28;20456;-71
2022/04/01 07:25:26;;;;;;;8.83;8.03;;;;;;;;;;5066314;28;20969;-71
2022/04/01 07:27:55;;;;;;;10.67;9.67;;;;;;;;;;5067740;28;21065;-70
2022/04/01 07:30:23;;;;;;;7.93;6.03;;;;;;;;;;5070975;28;20456;-71
2022/04/01 07:32:54;;;;;;;8.07;7.37;;;;;;;;;;5075227;28;20460;-70
2022/04/01 07:35:22;;;;;;;6.27;4.10;;;;;;;;;;5073806;28;20460;-71
2022/04/01 07:37:52;;;;;;;3.97;3.50;;;;;;;;;;5075262;28;20456;-70
2022/04/01 07:40:21;;;;;;;5.90;3.90;;;;;;;;;;5072177;28;20475;-70
2022/04/01 07:42:52;;;;;;;4.20;3.57;;;;;;;;;;5065015;28;20455;-71
2022/04/01 07:45:20;;;;;;;7.17;5.37;;;;;;;;;;5074440;28;20550;-71
2022/04/01 07:50:43;;;;;;;8.73;7.90;;;;;;;;;;5070496;28;20577;-71
2022/04/01 07:53:20;;;;;;;8.47;7.57;;;;;;;;;;5065947;28;20552;-71
2022/04/01 07:55:49;;;;;;;5.23;3.93;;;;;;;;;;5068447;28;20455;-70
2022/04/01 07:58:18;;;;;;;8.33;7.70;;;;;;;;;;5071357;28;20495;-71
2022/04/01 08:00:46;;;;;;;9.57;8.10;;;;;;;;;;5094095;28;20536;-71
2022/04/01 08:03:22;;;;;;;5.67;5.00;;;;;;;;;;5061783;28;20859;-71
2022/04/01 08:05:50;;;;;;;6.70;6.03;;;;;;;;;;5054126;28;20518;-71
2022/04/01 08:08:28;;;;;;;6.87;5.93;;;;;;;;;;5053386;28;20476;-72
2022/04/01 08:10:55;;;;;;;5.80;3.67;;;;;;;;;;5053493;28;20457;-72
2022/04/01 08:13:24;;;;;;;10.50;8.10;;;;;;;;;;5054729;28;20459;-70
2022/04/01 08:15:58;;;;;;;5.93;5.00;;;;;;;;;;5071119;28;20526;-70
2022/04/01 08:18:26;;;;;;;8.90;2.97;;;;;;;;;;5094551;28;20547;-71
2022/04/01 08:20:55;;;;;;;8.93;4.60;;;;;;;;;;5094567;28;20459;-71
2022/04/01 08:23:26;;;;;;;5.63;4.40;;;;;;;;;;5079050;28;20863;-71
2022/04/01 08:25:54;;;;;;;4.73;3.33;;;;;;;;;;5055515;28;20485;-71
2022/04/01 08:28:22;;;;;;;5.10;3.70;;;;;;;;;;5084896;28;20520;-71
2022/04/01 08:30:56;;;;;;;4.97;3.50;;;;;;;;;;5093538;28;20460;-72
2022/04/01 08:33:24;;;;;;;5.93;4.00;;;;;;;;;;5093889;28;20452;-72
2022/04/01 08:35:55;;;;;;;8.27;4.70;;;;;;;;;;5088078;28;20919;-72
2022/04/01 08:38:26;;;;;;;6.67;3.33;;;;;;;;;;5073742;28;20448;-71
2022/04/01 08:40:55;;;;;;;9.37;7.67;;;;;;;;;;5070892;28;20476;-71
2022/04/01 08:43:27;;;;;;;10.90;10.10;;;;;;;;;;5054498;28;20442;-72
2022/04/01 08:45:58;;;;;;;4.83;4.33;;;;;;;;;;5060221;28;20555;-72
2022/04/01 08:48:27;;;;;;;7.60;3.07;;;;;;;;;;5095382;28;20532;-71
2022/04/01 08:54:02;;;;;;;8.33;6.20;;;;;;;;;;5094344;28;20395;-71
2022/04/01 08:56:31;;;;;;;6.00;5.13;;;;;;;;;;5064804;28;20841;-71
2022/04/01 08:59:03;;;;;;;11.83;11.03;;;;;;;;;;5070483;28;20459;-70
2022/04/01 09:01:42;;;;;;;6.90;6.20;;;;;;;;;;5073474;28;20448;-72
2022/04/01 09:04:24;;;;;;;17.70;16.63;;;;;;;;;;5072925;28;20490;-72
2022/04/01 09:06:55;;;;;;;7.73;4.90;;;;;;;;;;5054404;28;20519;-73
2022/04/01 09:09:39;;;;;;;10.20;9.30;;;;;;;;;;5066041;28;20455;-72
2022/04/01 09:12:15;;;;;;;11.57;10.63;;;;;;;;;;5067774;28;20454;-71
2022/04/01 09:14:53;;;;;;;7.27;5.00;;;;;;;;;;5055236;28;21442;-71
2022/04/01 09:17:22;;;;;;;7.67;6.97;;;;;;;;;;5053823;28;20445;-70
2022/04/01 09:19:51;;;;;;;9.00;6.43;;;;;;;;;;5056435;28;20466;-70
2022/04/01 09:22:27;;;;;;;5.30;3.77;;;;;;;;;;5075034;28;20862;-71
2022/04/01 09:25:02;;;;;;;4.33;3.83;;;;;;;;;;5072736;28;20459;-71
2022/04/01 09:27:53;;;;;;;4.90;3.30;;;;;;;;;;5068667;28;20773;-71
2022/04/01 09:30:26;;;;;;;6.90;4.37;;;;;;;;;;5083396;28;20533;-71
2022/04/01 09:33:04;;;;;;;10.83;10.13;;;;;;;;;;5075010;28;20852;-71
2022/04/01 09:35:35;;;;;;;8.07;5.67;;;;;;;;;;5089198;28;20439;-71
2022/04/01 09:38:09;;;;;;;7.17;5.00;;;;;;;;;;5065473;28;20774;-70
2022/04/01 09:40:44;;;;;;;24.10;22.60;;;;;;;;;;5052720;28;20460;-71
2022/04/01 09:43:12;;;;;;;23.10;21.70;;;;;;;;;;5052289;28;20468;-70
2022/04/01 09:45:48;;;;;;;4.67;3.03;;;;;;;;;;5058276;28;20453;-71
2022/04/01 09:48:20;;;;;;;9.17;6.10;;;;;;;;;;5075475;28;20864;-70
2022/04/01 09:50:59;;;;;;;15.70;10.63;;;;;;;;;;5072144;28;20460;-72
2022/04/01 09:53:30;;;;;;;24.50;23.00;;;;;;;;;;5076219;28;20456;-71
2022/04/01 09:56:02;;;;;;;25.37;23.63;;;;;;;;;;5074220;28;20433;-71
2022/04/01 09:58:32;;;;;;;8.10;7.40;;;;;;;;;;5077090;28;20551;-71
2022/04/01 10:01:01;;;;;;;5.47;4.80;;;;;;;;;;5084382;28;20502;-71
2022/04/01 10:03:29;;;;;;;3.67;2.83;;;;;;;;;;5076191;28;20463;-71
2022/04/01 10:06:01;;;;;;;5.40;3.63;;;;;;;;;;5074122;28;20699;-71
2022/04/01 10:08:32;;;;;;;4.37;3.37;;;;;;;;;;5079097;28;20476;-71
2022/04/01 10:11:04;;;;;;;7.83;6.33;;;;;;;;;;5073017;28;20792;-71
2022/04/01 10:13:33;;;;;;;11.87;3.40;;;;;;;;;;5082786;28;20466;-71
2022/04/01 10:16:04;;;;;;;6.03;4.80;;;;;;;;;;5075666;28;20451;-71
2022/04/01 10:18:33;;;;;;;7.50;4.60;;;;;;;;;;5076184;28;20530;-71
2022/04/01 10:21:03;;;;;;;5.23;3.50;;;;;;;;;;5075070;28;20460;-72
2022/04/01 10:23:33;;;;;;;6.50;5.87;;;;;;;;;;5083520;28;20451;-72
2022/04/01 10:26:03;;;;;;;5.60;4.33;;;;;;;;;;5056982;28;20476;-71
2022/04/01 10:28:34;;;;;;;7.77;6.70;;;;;;;;;;5075287;28;20451;-72
2022/04/01 10:31:07;;;;;;;5.63;4.03;;;;;;;;;;5095993;28;20451;-72
2022/04/01 10:33:38;;;;;;;8.93;6.60;;;;;;;;;;5091248;28;20460;-71
2022/04/01 10:36:17;;;;;;;6.60;3.73;;;;;;;;;;5083206;28;20457;-72
2022/04/01 10:38:49;;;;;;;6.00;3.90;;;;;;;;;;5055348;28;20480;-72
2022/04/01 10:41:19;;;;;;;8.43;3.47;;;;;;;;;;5055430;28;20944;-71
2022/04/01 10:43:48;;;;;;;6.50;3.70;;;;;;;;;;5056416;28;20872;-71
2022/04/01 10:46:17;;;;;;;6.30;5.17;;;;;;;;;;5055834;28;20758;-70
2022/04/01 10:51:46;;;;;;;6.00;3.80;;;;;;;;;;5063787;28;20459;-72
2022/04/01 10:54:43;;;;;;;11.60;10.40;;;;;;;;;;5070757;28;20527;-73
2022/04/01 10:57:19;;;;;;;7.23;5.07;;;;;;;;;;5073150;28;20524;-73
2022/04/01 10:59:47;;;;;;;5.30;3.70;;;;;;;;;;5069880;28;20847;-72
2022/04/01 11:02:19;;;;;;;6.47;4.40;;;;;;;;;;5071940;28;20496;-71
2022/04/01 11:04:47;;;;;;;6.40;5.50;;;;;;;;;;5070634;28;20543;-72
2022/04/01 11:07:36;;;;;;;10.90;6.20;;;;;;;;;;5084429;28;20578;-72
2022/04/01 11:10:10;;;;;;;6.47;4.97;;;;;;;;;;5084307;28;21104;-71
2022/04/01 11:12:54;;;;;;;8.13;4.10;;;;;;;;;;5067699;28;20453;-71
2022/04/01 11:15:37;;;;;;;8.93;7.30;;;;;;;;;;5051922;28;20438;-71
2022/04/01 11:18:09;;;;;;;6.40;4.20;;;;;;;;;;5053716;28;20449;-71
2022/04/01 11:21:15;;;;;;;6.30;4.27;;;;;;;;;;5052982;28;20528;-71
2022/04/01 11:23:43;;;;;;;6.23;4.60;;;;;;;;;;5049173;28;20473;-70
2022/04/01 11:26:14;;;;;;;8.87;4.90;;;;;;;;;;5087232;28;20689;-72
2022/04/01 11:28:47;;;;;;;8.93;8.00;;;;;;;;;;5078910;28;21083;-72
2022/04/01 11:31:22;;;;;;;8.93;8.30;;;;;;;;;;5073206;28;21014;-71
2022/04/01 11:34:01;;;;;;;9.17;8.37;;;;;;;;;;5071019;28;20458;-71
2022/04/01 11:36:34;;;;;;;19.93;18.47;;;;;;;;;;5073148;28;20460;-71
2022/04/01 11:39:02;;;;;;;8.67;7.90;;;;;;;;;;5071560;28;20454;-72
2022/04/01 11:41:47;;;;;;;13.20;11.30;;;;;;;;;;5068189;28;20468;-71
2022/04/01 11:44:17;;;;;;;19.37;18.13;;;;;;;;;;5052618;28;20527;-72
2022/04/01 11:46:51;;;;;;;7.87;7.13;;;;;;;;;;5070125;28;20514;-71
2022/04/01 11:49:38;;;;;;;31.93;29.87;;;;;;;;;;5070407;28;20929;-72
2022/04/01 11:52:14;;;;;;;18.83;17.10;;;;;;;;;;5073088;28;20437;-71
2022/04/01 11:54:54;;;;;;;12.90;11.80;;;;;;;;;;5064011;28;20505;-72
2022/04/01 11:57:24;;;;;;;8.93;8.30;;;;;;;;;;5086668;28;20860;-71
2022/04/01 12:02:53;;;;;;;3.80;2.43;;;;;;;;;;5073369;28;20433;-70
2022/04/01 12:05:23;;;;;;;5.33;4.83;;;;;;;;;;5068573;28;20539;-71
2022/04/01 12:10:46;;;;;;;6.10;2.70;;;;;;;;;;5072429;28;20432;-70
2022/04/01 12:13:15;;;;;;;5.10;2.73;;;;;;;;;;5073011;28;20444;-71
2022/04/01 12:15:49;;;;;;;5.30;2.93;;;;;;;;;;5073211;28;20471;-72
2022/04/01 12:18:20;;;;;;;4.53;2.93;;;;;;;;;;5073365;28;20518;-71
2022/04/01 12:20:50;;;;;;;5.03;3.63;;;;;;;;;;5072763;28;20487;-72
2022/04/01 12:23:30;;;;;;;5.47;3.43;;;;;;;;;;5061966;28;20467;-71
2022/04/01 12:26:03;;;;;;;8.07;5.57;;;;;;;;;;5066091;28;20895;-71
2022/04/01 12:28:39;;;;;;;6.50;3.43;;;;;;;;;;5066607;28;20525;-71
2022/04/01 12:31:26;;;;;;;8.73;6.77;;;;;;;;;;5066701;28;20455;-71
2022/04/01 12:33:57;;;;;;;3.50;2.60;;;;;;;;;;5063709;28;20449;-71
2022/04/01 12:39:20;;;;;;;3.40;2.93;;;;;;;;;;5073346;28;20456;-69
2022/04/01 12:41:52;;;;;;;9.17;6.43;;;;;;;;;;5072679;28;20488;-71
2022/04/01 12:44:26;;;;;;;9.23;6.37;;;;;;;;;;5069963;28;20453;-71
2022/04/01 12:46:55;;;;;;;7.13;6.30;;;;;;;;;;5072450;28;20568;-69
2022/04/01 12:49:25;;;;;;;5.90;4.80;;;;;;;;;;5072819;28;20486;-71
2022/04/01 12:51:59;;;;;;;5.57;4.50;;;;;;;;;;5073753;28;20437;-72
2022/04/01 12:54:35;;;;;;;7.53;5.13;;;;;;;;;;5064847;28;20472;-72
2022/04/01 12:57:10;;;;;;;6.10;4.80;;;;;;;;;;5073968;28;20445;-71
2022/04/01 12:59:52;;;;;;;4.30;3.30;;;;;;;;;;5072726;28;20450;-71
2022/04/01 13:05:16;;;;;;;4.43;3.87;;;;;;;;;;5068796;28;20456;-70
2022/04/01 13:07:54;;;;;;;6.00;4.80;;;;;;;;;;5073641;28;20475;-71
2022/04/01 13:10:23;;;;;;;4.87;3.43;;;;;;;;;;5072906;28;20579;-71
2022/04/01 13:12:56;;;;;;;3.83;2.70;;;;;;;;;;5067225;28;20877;-71
2022/04/01 13:15:27;;;;;;;3.97;3.07;;;;;;;;;;5053325;28;20519;-71
2022/04/01 13:18:03;;;;;;;7.63;2.47;;;;;;;;;;5053819;28;20450;-71
2022/04/01 13:20:35;;;;;;;4.33;3.00;;;;;;;;;;5088644;28;20455;-71
2022/04/01 13:23:14;;;;;;;12.63;6.43;;;;;;;;;;5081307;28;20534;-70
2022/04/01 13:25:42;;;;;;;3.80;2.47;;;;;;;;;;5056556;28;20496;-70
2022/04/01 13:28:11;;;;;;;6.07;2.70;;;;;;;;;;5062241;28;20488;-71
2022/04/01 13:30:39;;;;;;;6.20;3.47;;;;;;;;;;5073775;28;20460;-70
2022/04/01 13:33:10;;;;;;;6.40;3.50;;;;;;;;;;5070653;28;20475;-70
2022/04/01 13:38:37;;;;;;;3.70;2.57;;;;;;;;;;5086152;28;20540;-70
2022/04/01 13:41:04;;;;;;;4.50;3.30;;;;;;;;;;5096648;28;20454;-70
2022/04/01 13:43:33;;;;;;;5.83;5.33;;;;;;;;;;5094524;28;20463;-69
2022/04/01 13:46:01;;;;;;;8.10;4.80;;;;;;;;;;5088988;28;20448;-69
2022/04/01 13:48:29;;;;;;;5.87;4.80;;;;;;;;;;5073270;28;20487;-69
2022/04/01 13:51:02;;;;;;;6.03;5.43;;;;;;;;;;5061398;28;20460;-71
2022/04/01 13:53:31;;;;;;;4.90;3.27;;;;;;;;;;5074029;28;20756;-70
2022/04/01 13:55:59;;;;;;;69.13;62.83;;;;;;;;;;5075813;28;20938;-70
2022/04/01 13:58:28;;;;;;;31.37;28.07;;;;;;;;;;5094390;28;20553;-70
2022/04/01 14:00:59;;;;;;;5.27;3.67;;;;;;;;;;5079530;28;20753;-70
2022/04/01 14:03:34;;;;;;;25.10;23.37;;;;;;;;;;5074682;28;20463;-69
2022/04/01 14:06:04;;;;;;;24.93;23.33;;;;;;;;;;5067135;28;20448;-69
2022/04/01 14:08:35;;;;;;;11.60;10.33;;;;;;;;;;5074605;28;20492;-69
2022/04/01 14:11:03;;;;;;;12.03;10.57;;;;;;;;;;5094788;28;20610;-69
2022/04/01 14:13:37;;;;;;;56.60;50.50;;;;;;;;;;5079812;28;20470;-69
2022/04/01 14:16:10;;;;;;;7.23;6.17;;;;;;;;;;5074702;28;20451;-70
2022/04/01 14:18:42;;;;;;;63.73;57.23;;;;;;;;;;5074682;28;20536;-70
2022/04/01 14:21:12;;;;;;;4.67;3.50;;;;;;;;;;5074888;28;20491;-70
2022/04/01 14:23:58;;;;;;;50.47;46.00;;;;;;;;;;5074369;28;20806;-70
2022/04/01 14:26:26;;;;;;;14.70;13.70;;;;;;;;;;5073260;28;20545;-71
2022/04/01 14:30:16;;;;;;;47.43;43.27;;;;;;;;;;5074481;28;20490;-69
2022/04/01 14:31:57;;;;;;;25.83;24.03;;;;;;;;;;5074274;28;21003;-69
2022/04/01 14:34:29;;;;;;;7.60;5.90;;;;;;;;;;5074816;28;20784;-69
2022/04/01 14:37:01;;;;;;;11.73;8.87;;;;;;;;;;5072086;28;20559;-69
2022/04/01 14:39:41;;;;;;;17.43;16.17;;;;;;;;;;5072037;28;20552;-70
2022/04/01 14:42:18;;;;;;;14.30;13.13;;;;;;;;;;5072905;28;20444;-71
2022/04/01 14:44:47;;;;;;;16.37;15.17;;;;;;;;;;5075715;28;21258;-70
2022/04/01 14:47:20;;;;;;;36.60;33.77;;;;;;;;;;5080385;28;20449;-72
2022/04/01 14:49:50;;;;;;;56.40;50.87;;;;;;;;;;5066077;28;20572;-71
2022/04/01 14:52:23;;;;;;;30.67;28.60;;;;;;;;;;5073952;28;20475;-70
2022/04/01 14:54:53;;;;;;;15.33;14.37;;;;;;;;;;5088134;28;20449;-70
2022/04/01 14:57:31;;;;;;;43.17;38.80;;;;;;;;;;5062350;28;20485;-70
2022/04/01 15:00:02;;;;;;;7.53;6.80;;;;;;;;;;5061519;28;20862;-71
2022/04/01 15:02:30;;;;;;;16.83;15.87;;;;;;;;;;5066818;28;20446;-71
2022/04/01 15:04:58;;;;;;;15.77;14.30;;;;;;;;;;5056803;28;20896;-72
2022/04/01 15:07:27;;;;;;;12.33;11.57;;;;;;;;;;5078351;28;20907;-71
2022/04/01 15:09:58;;;;;;;12.50;11.60;;;;;;;;;;5093961;28;20469;-70
2022/04/01 15:12:33;;;;;;;7.67;5.40;;;;;;;;;;5082489;28;20468;-71
2022/04/01 15:15:05;;;;;;;27.47;25.57;;;;;;;;;;5085921;28;20439;-71
2022/04/01 15:17:34;;;;;;;19.83;18.53;;;;;;;;;;5093619;28;20505;-71
2022/04/01 15:20:03;;;;;;;7.23;6.70;;;;;;;;;;5093812;28;20451;-70
2022/04/01 15:22:35;;;;;;;4.90;3.77;;;;;;;;;;5093597;28;20918;-71
2022/04/01 15:25:03;;;;;;;16.60;15.50;;;;;;;;;;5092801;28;20470;-71
2022/04/01 15:27:32;;;;;;;8.00;6.13;;;;;;;;;;5071468;28;20454;-71